Time;durP1;ratioP1;P1;durP2;ratioP2;P2;SDS_P1;SDS_P2;PMS_P1;PMS_P2;Temp;Humidity;BMP_temperature;BMP_pressure;BME280_temperature;BME280_humidity;BME280_pressure;Samples;Min_cycle;Max_cycle;Signal;HPM_P1;HPM_P2
2022/06/13 00:00:31;;;;;;;1999.90;999.90;;;13.00;99.90;;;;;;4992835;28;20206;-59
2022/06/13 00:02:59;;;;;;;1999.90;999.90;;;12.60;99.90;;;;;;4992872;28;20256;-59
2022/06/13 00:05:26;;;;;;;1999.90;999.90;;;12.30;99.90;;;;;;4992947;28;20567;-59
2022/06/13 00:07:53;;;;;;;1999.90;999.90;;;12.10;99.90;;;;;;4992718;28;20275;-60
2022/06/13 00:10:20;;;;;;;1999.90;999.90;;;12.00;99.90;;;;;;4992775;28;20210;-59
2022/06/13 00:12:48;;;;;;;1999.90;999.90;;;11.90;99.90;;;;;;4992603;28;20236;-59
2022/06/13 00:15:16;;;;;;;1999.90;999.90;;;11.90;99.90;;;;;;4992798;28;20226;-59
2022/06/13 00:17:43;;;;;;;1999.90;999.90;;;11.80;99.90;;;;;;4992755;28;20200;-59
2022/06/13 00:20:12;;;;;;;1999.90;999.90;;;11.80;99.90;;;;;;4992674;28;20201;-59
2022/06/13 00:22:40;;;;;;;1999.90;999.90;;;11.80;99.90;;;;;;4992585;28;20204;-60
2022/06/13 00:25:08;;;;;;;1999.90;999.90;;;11.70;99.90;;;;;;4992686;28;20204;-60
2022/06/13 00:27:35;;;;;;;1999.90;999.90;;;11.80;99.90;;;;;;4993695;28;20299;-59
2022/06/13 00:30:04;;;;;;;1999.90;999.90;;;11.90;99.90;;;;;;4996364;28;20269;-60
2022/06/13 00:32:31;;;;;;;1999.90;999.90;;;12.10;99.90;;;;;;4996607;28;20199;-60
2022/06/13 00:34:57;;;;;;;1999.90;999.90;;;12.20;99.90;;;;;;4996831;28;20239;-60
2022/06/13 00:37:26;;;;;;;1999.90;999.90;;;12.30;99.90;;;;;;4997564;28;20205;-60
2022/06/13 00:39:53;;;;;;;1999.90;999.90;;;12.30;99.90;;;;;;4996610;28;20255;-60
2022/06/13 00:42:22;;;;;;;1999.90;999.90;;;12.30;99.90;;;;;;4996497;28;20542;-60
2022/06/13 00:45:13;;;;;;;1999.90;999.90;;;12.30;99.90;;;;;;4996498;28;20270;-60
2022/06/13 00:47:42;;;;;;;1999.90;999.90;;;12.30;99.90;;;;;;4996634;28;20186;-59
2022/06/13 00:50:12;;;;;;;1999.90;999.90;;;12.40;99.90;;;;;;4995975;28;20223;-59
2022/06/13 00:52:45;;;;;;;1999.90;999.90;;;12.40;99.90;;;;;;4996236;28;20194;-59
2022/06/13 00:55:15;;;;;;;1999.90;999.90;;;12.40;99.90;;;;;;4996284;28;20196;-60
2022/06/13 00:57:41;;;;;;;1999.90;999.90;;;12.40;99.90;;;;;;4996250;28;20201;-59
2022/06/13 01:00:12;;;;;;;1999.90;999.90;;;12.40;99.90;;;;;;4996238;28;20232;-59
2022/06/13 01:02:43;;;;;;;1999.90;999.90;;;12.40;99.90;;;;;;4996162;28;20225;-59
2022/06/13 01:05:11;;;;;;;1999.90;999.90;;;12.40;99.90;;;;;;4996140;28;20178;-60
2022/06/13 01:07:39;;;;;;;1999.90;999.90;;;12.40;99.90;;;;;;4996322;28;20550;-59
2022/06/13 01:12:53;;;;;;;1999.90;999.90;;;12.40;99.90;;;;;;4995561;28;20237;-59
2022/06/13 01:15:38;;;;;;;1999.90;999.90;;;12.40;99.90;;;;;;4996101;28;20205;-59
2022/06/13 01:18:24;;;;;;;1999.90;999.90;;;12.40;99.90;;;;;;4995917;28;20189;-59
2022/06/13 01:21:07;;;;;;;1999.90;999.90;;;12.40;99.90;;;;;;4995331;28;20635;-59
2022/06/13 01:24:18;;;;;;;1999.90;999.90;;;12.30;99.90;;;;;;4995736;28;20189;-59
2022/06/13 01:27:21;;;;;;;1999.90;999.90;;;12.30;99.90;;;;;;4995841;28;20208;-60
2022/06/13 01:30:13;;;;;;;1999.90;999.90;;;12.30;99.90;;;;;;4995567;28;20312;-59
2022/06/13 01:32:52;;;;;;;1999.90;999.90;;;12.10;99.90;;;;;;4967449;28;20209;-59
2022/06/13 01:35:34;;;;;;;1999.90;999.90;;;12.00;99.90;;;;;;4995715;28;20194;-59
2022/06/13 01:38:17;;;;;;;1999.90;999.90;;;11.90;99.90;;;;;;4995603;28;20196;-60
2022/06/13 01:40:55;;;;;;;1999.90;999.90;;;11.80;99.90;;;;;;4995439;28;20240;-59
2022/06/13 01:43:29;;;;;;;1999.90;999.90;;;11.50;99.90;;;;;;4995385;28;20188;-59
2022/06/13 01:46:05;;;;;;;1999.90;999.90;;;11.30;99.90;;;;;;4995423;28;20187;-59
2022/06/13 01:48:37;;;;;;;1999.90;999.90;;;11.10;99.90;;;;;;4995113;28;20656;-59
2022/06/13 01:51:14;;;;;;;1999.90;999.90;;;11.00;99.90;;;;;;4995161;28;20189;-59
2022/06/13 01:53:49;;;;;;;1999.90;999.90;;;11.10;99.90;;;;;;4995275;28;20202;-60
2022/06/13 01:56:17;;;;;;;1999.90;999.90;;;11.20;99.90;;;;;;4995346;28;20196;-60
2022/06/13 01:58:50;;;;;;;1999.90;999.90;;;11.10;99.90;;;;;;4995151;28;20320;-60
2022/06/13 02:01:24;;;;;;;1999.90;999.90;;;11.10;99.90;;;;;;4996618;28;20187;-59
2022/06/13 02:04:00;;;;;;;1999.90;999.90;;;11.10;99.90;;;;;;4995685;28;20184;-59
2022/06/13 02:06:31;;;;;;;1999.90;999.90;;;11.30;99.90;;;;;;4994718;28;20245;-60
2022/06/13 02:09:02;;;;;;;1999.90;999.90;;;11.50;99.90;;;;;;4994916;28;20195;-59
2022/06/13 02:11:33;;;;;;;1999.90;999.90;;;11.60;99.90;;;;;;4994972;28;20241;-60
2022/06/13 02:14:05;;;;;;;1999.90;999.90;;;11.70;99.90;;;;;;4994886;28;20196;-59
2022/06/13 02:16:37;;;;;;;1999.90;999.90;;;11.80;99.90;;;;;;4994497;28;20191;-59
2022/06/13 02:19:12;;;;;;;1999.90;999.90;;;12.00;99.90;;;;;;4994835;28;20182;-59
2022/06/13 02:21:44;;;;;;;1999.90;999.90;;;12.10;99.90;;;;;;4994658;28;20184;-60
2022/06/13 02:24:14;;;;;;;1999.90;999.90;;;12.30;99.90;;;;;;4994735;28;20189;-59
2022/06/13 02:26:44;;;;;;;1999.90;999.90;;;12.40;99.90;;;;;;4994553;28;20256;-59
2022/06/13 02:29:17;;;;;;;1999.90;999.90;;;12.50;99.90;;;;;;4994739;28;20232;-60
2022/06/13 02:31:49;;;;;;;1999.90;999.90;;;12.40;99.90;;;;;;4994541;28;20196;-59
2022/06/13 02:34:23;;;;;;;1999.90;999.90;;;12.30;99.90;;;;;;4994521;28;20235;-59
2022/06/13 02:36:55;;;;;;;1999.90;999.90;;;12.30;99.90;;;;;;4994510;28;20240;-60
2022/06/13 02:39:26;;;;;;;1999.90;999.90;;;12.30;99.90;;;;;;4994435;28;20181;-61
2022/06/13 02:41:59;;;;;;;1999.90;999.90;;;12.40;99.90;;;;;;4994337;28;20188;-60
2022/06/13 02:44:31;;;;;;;1999.90;999.90;;;12.60;99.90;;;;;;4994343;28;20190;-60
2022/06/13 02:47:04;;;;;;;1999.90;999.90;;;12.70;99.90;;;;;;4994197;28;20178;-59
2022/06/13 02:49:37;;;;;;;1999.90;999.90;;;12.90;99.90;;;;;;4993965;28;20228;-59
2022/06/13 02:52:13;;;;;;;1999.90;999.90;;;13.00;99.90;;;;;;4993672;28;20614;-60
2022/06/13 02:54:47;;;;;;;1999.90;999.90;;;13.00;99.90;;;;;;4994201;28;20197;-60
2022/06/13 02:57:35;;;;;;;1999.90;999.90;;;13.00;99.90;;;;;;4994002;28;20795;-60
2022/06/13 03:00:26;;;;;;;1999.90;999.90;;;13.00;99.90;;;;;;4994032;28;20182;-60
2022/06/13 03:03:01;;;;;;;1999.90;999.90;;;12.90;99.90;;;;;;4989894;28;20217;-59
2022/06/13 03:05:44;;;;;;;1999.90;999.90;;;12.90;99.90;;;;;;4993954;28;20571;-59
2022/06/13 03:08:20;;;;;;;1999.90;999.90;;;13.00;99.90;;;;;;4993820;28;20244;-60
2022/06/13 03:10:53;;;;;;;1999.90;999.90;;;13.00;99.90;;;;;;4993464;28;20209;-60
2022/06/13 03:13:30;;;;;;;1999.90;999.90;;;13.00;99.90;;;;;;4993570;28;20252;-60
2022/06/13 03:16:02;;;;;;;1999.90;999.90;;;13.10;99.90;;;;;;4993732;28;20197;-59
2022/06/13 03:18:33;;;;;;;1999.90;999.90;;;13.00;99.90;;;;;;4993456;28;20539;-60
2022/06/13 03:21:06;;;;;;;1999.90;999.90;;;13.10;99.90;;;;;;4993534;28;20177;-60
2022/06/13 03:23:40;;;;;;;1999.90;999.90;;;13.10;99.90;;;;;;4993713;28;20519;-59
2022/06/13 03:26:11;;;;;;;1999.90;999.90;;;13.10;99.90;;;;;;4993644;28;20212;-60
2022/06/13 03:28:45;;;;;;;1999.90;999.90;;;13.00;99.90;;;;;;4993179;28;20189;-60
2022/06/13 03:31:15;;;;;;;1999.90;999.90;;;13.00;99.90;;;;;;4993395;28;20300;-60
2022/06/13 03:33:47;;;;;;;1999.90;999.90;;;13.00;99.90;;;;;;4993566;28;20186;-59
2022/06/13 03:36:21;;;;;;;1999.90;999.90;;;12.90;99.90;;;;;;4993765;28;20204;-59
2022/06/13 03:38:53;;;;;;;1999.90;999.90;;;13.00;99.90;;;;;;4993478;28;20185;-60
2022/06/13 03:41:24;;;;;;;1999.90;999.90;;;13.10;99.90;;;;;;4994452;28;20192;-60
2022/06/13 03:43:57;;;;;;;1999.90;999.90;;;13.20;99.90;;;;;;4994252;28;20189;-59
2022/06/13 03:46:29;;;;;;;1999.90;999.90;;;13.40;99.90;;;;;;4993227;28;20247;-59
2022/06/13 03:49:01;;;;;;;1999.90;999.90;;;13.60;99.90;;;;;;4993087;28;20185;-60
2022/06/13 03:51:34;;;;;;;1999.90;999.90;;;13.70;99.90;;;;;;4993253;28;20224;-60
2022/06/13 03:54:07;;;;;;;1999.90;999.90;;;13.80;99.90;;;;;;4993206;28;20182;-60
2022/06/13 03:56:39;;;;;;;1999.90;999.90;;;13.80;99.90;;;;;;4993109;28;20216;-60
2022/06/13 03:59:09;;;;;;;1999.90;999.90;;;13.70;99.90;;;;;;4993194;28;20198;-59
2022/06/13 04:01:39;;;;;;;1999.90;999.90;;;13.60;99.90;;;;;;4992948;28;20182;-60
2022/06/13 04:04:11;;;;;;;1999.90;999.90;;;13.40;99.90;;;;;;4993086;28;20201;-59
2022/06/13 04:06:40;;;;;;;1999.90;999.90;;;13.30;99.90;;;;;;4992759;28;20189;-60
2022/06/13 04:09:10;;;;;;;1999.90;999.90;;;13.10;99.90;;;;;;4992640;28;20654;-60
2022/06/13 04:11:54;;;;;;;1999.90;999.90;;;13.10;99.90;;;;;;4992553;28;20210;-60
2022/06/13 04:14:42;;;;;;;1999.90;999.90;;;13.10;99.90;;;;;;4992862;28;20260;-61
2022/06/13 04:17:18;;;;;;;1999.90;999.90;;;13.20;99.90;;;;;;4992886;28;20518;-61
2022/06/13 04:19:52;;;;;;;1999.90;999.90;;;13.10;99.90;;;;;;4992716;28;20636;-60
2022/06/13 04:22:28;;;;;;;1999.90;999.90;;;13.00;99.90;;;;;;4992754;28;20181;-61
2022/06/13 04:24:59;;;;;;;1999.90;999.90;;;13.00;99.90;;;;;;4992731;28;20185;-60
2022/06/13 04:27:30;;;;;;;1999.90;999.90;;;13.00;99.90;;;;;;4992765;28;20185;-61
2022/06/13 04:30:03;;;;;;;1999.90;999.90;;;13.00;99.90;;;;;;4992332;28;20606;-60
2022/06/13 04:32:37;;;;;;;1999.90;999.90;;;13.10;99.90;;;;;;4992667;28;20182;-60
2022/06/13 04:35:05;;;;;;;1999.90;999.90;;;13.10;99.90;;;;;;4992753;28;20192;-60
2022/06/13 04:37:34;;;;;;;1999.90;999.90;;;13.10;99.90;;;;;;4992627;28;20563;-61
2022/06/13 04:40:06;;;;;;;1999.90;999.90;;;13.10;99.90;;;;;;4992606;28;20269;-61
2022/06/13 04:42:37;;;;;;;1999.90;999.90;;;13.20;99.90;;;;;;4992358;28;20186;-61
2022/06/13 04:45:11;;;;;;;1999.90;999.90;;;13.00;99.90;;;;;;4992632;28;20197;-60
2022/06/13 04:47:38;;;;;;;1999.90;999.90;;;13.10;99.90;;;;;;4992639;28;20190;-61
2022/06/13 04:50:06;;;;;;;1999.90;999.90;;;13.20;99.90;;;;;;4992343;28;20223;-61
2022/06/13 04:52:37;;;;;;;1999.90;999.90;;;13.30;99.90;;;;;;4992084;28;20202;-61
2022/06/13 04:55:07;;;;;;;1999.90;999.90;;;13.30;99.90;;;;;;4992573;28;20202;-61
2022/06/13 04:57:35;;;;;;;1999.90;999.90;;;13.40;99.90;;;;;;4992492;28;20240;-61
2022/06/13 05:00:05;;;;;;;1999.90;999.90;;;13.40;99.90;;;;;;4992365;28;20194;-61
2022/06/13 05:02:44;;;;;;;1999.90;999.90;;;13.40;99.90;;;;;;4992285;28;20212;-60
2022/06/13 05:05:28;;;;;;;1999.90;999.90;;;13.40;99.90;;;;;;4992470;28;20204;-60
2022/06/13 05:07:57;;;;;;;1999.90;999.90;;;13.40;99.90;;;;;;4992317;28;20186;-61
2022/06/13 05:10:28;;;;;;;1999.90;999.90;;;13.50;99.90;;;;;;4991883;28;20684;-61
2022/06/13 05:12:57;;;;;;;1999.90;999.90;;;13.70;99.90;;;;;;4991865;28;20562;-60
2022/06/13 05:15:27;;;;;;;1999.90;999.90;;;13.70;99.90;;;;;;4995859;28;20197;-60
2022/06/13 05:18:19;;;;;;;1999.90;999.90;;;13.80;99.90;;;;;;4996043;28;20182;-60
2022/06/13 05:20:57;;;;;;;1999.90;999.90;;;13.80;99.90;;;;;;4995829;28;20593;-60
2022/06/13 05:23:48;;;;;;;1999.90;999.90;;;14.00;99.90;;;;;;4995845;28;20193;-60
2022/06/13 05:26:15;;;;;;;1999.90;999.90;;;13.90;99.90;;;;;;4995946;28;20201;-61
2022/06/13 05:28:42;;;;;;;1999.90;999.90;;;14.00;99.90;;;;;;4995924;28;20208;-60
2022/06/13 05:31:12;;;;;;;1999.90;999.90;;;14.00;99.90;;;;;;4997538;28;20217;-62
2022/06/13 05:33:43;;;;;;;1999.90;999.90;;;14.10;99.90;;;;;;4996372;28;20190;-60
2022/06/13 05:36:13;;;;;;;1999.90;999.90;;;14.20;99.90;;;;;;4995449;28;20650;-61
2022/06/13 05:38:46;;;;;;;1999.90;999.90;;;14.20;99.90;;;;;;4995566;28;20554;-61
2022/06/13 05:41:13;;;;;;;1999.90;999.90;;;14.10;99.90;;;;;;4995216;28;20585;-61
2022/06/13 05:43:40;;;;;;;1999.90;999.90;;;14.00;99.90;;;;;;4995379;28;20205;-61
2022/06/13 05:46:08;;;;;;;1999.90;999.90;;;14.10;99.90;;;;;;4995371;28;20205;-61
2022/06/13 05:48:36;;;;;;;1999.90;999.90;;;14.10;99.90;;;;;;4995094;28;20709;-61
2022/06/13 05:51:03;;;;;;;1999.90;999.90;;;14.30;99.90;;;;;;4994977;28;20253;-61
2022/06/13 05:53:30;;;;;;;1999.90;999.90;;;14.40;99.90;;;;;;4994848;28;20202;-61
2022/06/13 05:56:01;;;;;;;1999.90;999.90;;;14.80;99.90;;;;;;4995303;28;20240;-61
2022/06/13 05:58:28;;;;;;;1999.90;999.90;;;14.80;99.90;;;;;;4995212;28;20194;-61
2022/06/13 06:00:58;;;;;;;1999.90;999.90;;;15.10;99.90;;;;;;4995168;28;20190;-61
2022/06/13 06:03:25;;;;;;;1999.90;999.90;;;15.40;99.90;;;;;;4995327;28;20294;-61
2022/06/13 06:05:53;;;;;;;1999.90;999.90;;;15.60;99.90;;;;;;4994787;28;20206;-61
2022/06/13 06:08:22;;;;;;;1999.90;999.90;;;15.40;99.90;;;;;;4994694;28;20750;-61
2022/06/13 06:10:51;;;;;;;1999.90;999.90;;;15.80;99.90;;;;;;4994853;28;20281;-61
2022/06/13 06:13:19;;;;;;;1999.90;999.90;;;16.50;99.90;;;;;;4994621;28;20897;-61
2022/06/13 06:15:48;;;;;;;1999.90;999.90;;;17.30;99.90;;;;;;4994890;28;20198;-61
2022/06/13 06:18:16;;;;;;;1999.90;999.90;;;17.40;99.90;;;;;;4994805;28;20289;-61
2022/06/13 06:20:43;;;;;;;1999.90;999.90;;;17.40;99.90;;;;;;4994330;28;20212;-62
2022/06/13 06:23:10;;;;;;;1999.90;999.90;;;17.60;99.90;;;;;;4994620;28;20194;-61
2022/06/13 06:25:37;;;;;;;1999.90;999.90;;;17.40;99.90;;;;;;4993205;28;20738;-62
2022/06/13 06:28:05;;;;;;;1999.90;999.90;;;17.10;99.90;;;;;;4994656;28;20227;-61
2022/06/13 06:30:34;;;;;;;1999.90;999.90;;;17.50;99.90;;;;;;4994177;28;20726;-61
2022/06/13 06:33:01;;;;;;;1999.90;999.90;;;17.50;99.90;;;;;;4994479;28;20300;-61
2022/06/13 06:35:30;;;;;;;1999.90;999.90;;;17.50;99.90;;;;;;4994585;28;20227;-61
2022/06/13 06:37:59;;;;;;;1999.90;999.90;;;18.10;99.90;;;;;;4994317;28;20569;-62
2022/06/13 06:40:27;;;;;;;1999.90;999.90;;;18.70;99.90;;;;;;4993777;28;20664;-62
2022/06/13 06:42:55;;;;;;;1999.90;999.90;;;18.10;99.90;;;;;;4994035;28;20210;-62
2022/06/13 06:45:22;;;;;;;1999.90;999.90;;;17.80;99.90;;;;;;4994190;28;20248;-62
2022/06/13 06:47:51;;;;;;;1999.90;999.90;;;18.00;99.90;;;;;;4994113;28;20209;-63
2022/06/13 06:50:22;;;;;;;1999.90;999.90;;;18.40;99.90;;;;;;4993716;28;20241;-63
2022/06/13 06:52:51;;;;;;;1999.90;999.90;;;18.60;99.90;;;;;;4993399;28;20603;-62
2022/06/13 07:00:51;;;;;;;1999.90;999.90;;;19.30;99.90;;;;;;4993374;28;20655;-62
2022/06/13 07:03:19;;;;;;;1999.90;999.90;;;19.70;99.90;;;;;;4993359;28;20660;-62
2022/06/13 07:05:46;;;;;;;1999.90;999.90;;;20.20;99.90;;;;;;4993652;28;20205;-62
2022/06/13 07:08:14;;;;;;;1999.90;999.90;;;20.40;99.90;;;;;;4993437;28;20206;-62
2022/06/13 07:10:42;;;;;;;1999.90;999.90;;;20.30;99.90;;;;;;4993118;28;20753;-63
2022/06/13 07:13:10;;;;;;;1999.90;999.90;;;20.60;99.90;;;;;;4993090;28;20241;-63
2022/06/13 07:15:37;;;;;;;1999.90;999.90;;;20.80;99.90;;;;;;4993177;28;20198;-62
2022/06/13 07:18:03;;;;;;;1999.90;999.90;;;21.40;99.90;;;;;;4993510;28;20867;-60
2022/06/13 07:20:32;;;;;;;1999.90;999.90;;;21.60;99.90;;;;;;4993344;28;20197;-61
2022/06/13 07:22:59;;;;;;;1999.90;999.90;;;22.20;99.90;;;;;;4992930;28;20301;-60
2022/06/13 07:25:28;;;;;;;1999.90;999.90;;;22.00;99.90;;;;;;4992961;28;20205;-61
2022/06/13 07:27:55;;;;;;;1999.90;999.90;;;21.60;99.90;;;;;;4992964;28;20198;-60
2022/06/13 07:30:26;;;;;;;1999.90;999.90;;;21.40;99.90;;;;;;4993247;28;20305;-61
2022/06/13 07:32:57;;;;;;;1999.90;999.90;;;21.70;99.90;;;;;;4993183;28;20276;-63
2022/06/13 07:35:25;;;;;;;1999.90;999.90;;;21.80;99.90;;;;;;4993130;28;20550;-61
2022/06/13 07:40:38;;;;;;;1999.90;999.90;;;22.30;99.90;;;;;;4992720;28;20778;-61
2022/06/13 07:43:07;;;;;;;1999.90;999.90;;;23.20;99.90;;;;;;4993013;28;20189;-62
2022/06/13 07:45:39;;;;;;;1999.90;999.90;;;23.40;99.90;;;;;;4992652;28;20690;-61
2022/06/13 07:48:07;;;;;;;1999.90;999.90;;;23.20;99.90;;;;;;4992902;28;20197;-61
2022/06/13 07:50:35;;;;;;;1999.90;999.90;;;22.80;10.00;;;;;;4992691;28;20691;-62
2022/06/13 07:53:03;;;;;;;1999.90;999.90;;;22.80;1.00;;;;;;4992911;28;20204;-61
2022/06/13 07:55:32;;;;;;;1999.90;999.90;;;22.30;1.00;;;;;;4992798;28;20288;-62
2022/06/13 07:58:00;;;;;;;1999.90;999.90;;;22.20;1.00;;;;;;4992764;28;20305;-60
2022/06/13 08:00:32;;;;;;;1999.90;999.90;;;22.50;99.90;;;;;;4992774;28;20208;-60
2022/06/13 08:03:01;;;;;;;1999.90;999.90;;;22.00;99.90;;;;;;4992706;28;20190;-59
2022/06/13 08:05:28;;;;;;;1999.90;999.90;;;21.70;1.00;;;;;;4992607;28;20197;-60
2022/06/13 08:07:55;;;;;;;1999.90;999.90;;;21.20;99.90;;;;;;4992681;28;20198;-61
2022/06/13 08:10:24;;;;;;;1999.90;999.90;;;22.40;99.90;;;;;;4992638;28;20236;-61
2022/06/13 08:12:51;;;;;;;1999.90;999.90;;;22.10;1.00;;;;;;4992251;28;20340;-61
2022/06/13 08:15:18;;;;;;;1999.90;999.90;;;21.90;99.90;;;;;;4992446;28;20248;-60
2022/06/13 08:17:45;;;;;;;1999.90;999.90;;;22.70;99.90;;;;;;4992390;28;20690;-60
2022/06/13 08:20:13;;;;;;;1999.90;999.90;;;23.40;99.90;;;;;;4992419;28;20201;-61
2022/06/13 08:22:44;;;;;;;1999.90;999.90;;;23.40;1.00;;;;;;4992424;28;20251;-61
2022/06/13 08:25:18;;;;;;;1999.90;999.90;;;23.30;99.90;;;;;;4992557;28;20209;-61
2022/06/13 08:27:47;;;;;;;1999.90;999.90;;;22.10;18.00;;;;;;4992574;28;20209;-61
2022/06/13 08:30:15;;;;;;;1999.90;999.90;;;20.80;1.00;;;;;;4992159;28;20671;-61
2022/06/13 08:32:42;;;;;;;1999.90;999.90;;;20.10;1.00;;;;;;4992351;28;20217;-61
2022/06/13 08:35:10;;;;;;;1999.90;999.90;;;21.30;1.00;;;;;;4992248;28;20236;-61
2022/06/13 08:37:37;;;;;;;1999.90;999.90;;;22.80;99.90;;;;;;4992064;28;20290;-62
2022/06/13 08:40:05;;;;;;;1999.90;999.90;;;24.10;99.90;;;;;;4992128;28;20193;-61
2022/06/13 08:42:37;;;;;;;1999.90;999.90;;;23.10;99.90;;;;;;4992439;28;20238;-61
2022/06/13 08:45:10;;;;;;;1999.90;999.90;;;22.40;1.00;;;;;;4992716;28;20212;-62
2022/06/13 08:47:46;;;;;;;1999.90;999.90;;;22.10;1.00;;;;;;4992358;28;20181;-61
2022/06/13 08:50:33;;;;;;;1999.90;999.90;;;22.40;1.00;;;;;;4995756;28;20201;-61
2022/06/13 08:53:04;;;;;;;1999.90;999.90;;;23.20;1.00;;;;;;4993927;28;20232;-61
2022/06/13 08:55:36;;;;;;;1999.90;999.90;;;23.80;1.00;;;;;;4996147;28;20196;-62
2022/06/13 08:58:12;;;;;;;1999.90;999.90;;;23.90;1.00;;;;;;4996123;28;20186;-62
2022/06/13 09:00:47;;;;;;;1999.90;999.90;;;24.70;99.90;;;;;;4996112;28;20590;-62
2022/06/13 09:03:19;;;;;;;1999.90;999.90;;;25.00;99.90;;;;;;4995716;28;20686;-61
2022/06/13 09:05:53;;;;;;;1999.90;999.90;;;25.10;99.90;;;;;;4995743;28;20201;-62
2022/06/13 09:08:25;;;;;;;1999.90;999.90;;;24.40;1.00;;;;;;4996070;28;20819;-62
2022/06/13 09:11:01;;;;;;;1999.90;999.90;;;23.30;1.00;;;;;;4995641;28;20636;-62
2022/06/13 09:13:34;;;;;;;1999.90;999.90;;;22.10;1.00;;;;;;4995809;28;20232;-62
2022/06/13 09:16:07;;;;;;;1999.90;999.90;;;21.90;1.00;;;;;;4995955;28;20204;-62
2022/06/13 09:18:40;;;;;;;1999.90;999.90;;;21.70;1.00;;;;;;4995231;28;20182;-61
2022/06/13 09:21:16;;;;;;;1999.90;999.90;;;22.50;1.00;;;;;;4995341;28;20193;-62
2022/06/13 09:23:51;;;;;;;1999.90;999.90;;;23.80;1.00;;;;;;4995637;28;20240;-61
2022/06/13 09:26:21;;;;;;;1999.90;999.90;;;24.90;99.90;;;;;;4995724;28;20231;-62
2022/06/13 09:28:56;;;;;;;1999.90;999.90;;;25.20;99.90;;;;;;4995666;28;20249;-61
2022/06/13 09:31:29;;;;;;;1999.90;999.90;;;25.30;99.90;;;;;;4995524;28;20209;-62
2022/06/13 09:34:03;;;;;;;1999.90;999.90;;;26.20;99.90;;;;;;4995562;28;20245;-61
2022/06/13 09:36:33;;;;;;;1999.90;999.90;;;25.40;99.90;;;;;;4995746;28;20194;-62
2022/06/13 09:39:04;;;;;;;1999.90;999.90;;;23.60;47.40;;;;;;4995348;28;20197;-62
2022/06/13 09:41:45;;;;;;;1999.90;999.90;;;22.60;62.80;;;;;;4995231;28;20545;-61
2022/06/13 09:44:21;;;;;;;1999.90;999.90;;;21.80;99.90;;;;;;4994541;28;20188;-61
2022/06/13 09:46:55;;;;;;;1999.90;999.90;;;21.50;99.90;;;;;;4994866;28;20200;-61
2022/06/13 09:49:36;;;;;;;1999.90;999.90;;;21.50;99.90;;;;;;4994771;28;20185;-61
2022/06/13 09:52:11;;;;;;;1999.90;999.90;;;21.60;99.90;;;;;;4994286;28;20212;-62
2022/06/13 09:54:50;;;;;;;1999.90;999.90;;;21.30;99.90;;;;;;4994759;28;20182;-62
2022/06/13 09:57:24;;;;;;;1999.90;999.90;;;21.00;99.90;;;;;;4995086;28;20232;-62
2022/06/13 10:00:10;;;;;;;1999.90;999.90;;;20.90;99.90;;;;;;4997204;28;20182;-61
2022/06/13 10:02:48;;;;;;;1999.90;999.90;;;21.30;99.90;;;;;;4993573;28;20190;-60
2022/06/13 10:05:31;;;;;;;1999.90;999.90;;;21.10;99.90;;;;;;4994511;28;20181;-60
2022/06/13 10:08:09;;;;;;;1999.90;999.90;;;22.30;99.90;;;;;;5003022;28;20189;-61
2022/06/13 10:10:46;;;;;;;1999.90;999.90;;;23.40;9.50;;;;;;5014049;28;20626;-61
2022/06/13 10:13:23;;;;;;;1999.90;999.90;;;23.90;1.00;;;;;;5013778;28;20247;-61
2022/06/13 10:16:03;;;;;;;1999.90;999.90;;;24.90;1.00;;;;;;5014062;28;20971;-61
2022/06/13 10:18:54;;;;;;;1999.90;999.90;;;25.40;1.00;;;;;;5014127;28;20185;-61
2022/06/13 10:21:29;;;;;;;1999.90;999.90;;;24.70;1.00;;;;;;5013630;28;20549;-61
2022/06/13 10:24:05;;;;;;;1999.90;999.90;;;24.00;1.00;;;;;;5013904;28;20192;-61
2022/06/13 10:26:40;;;;;;;1999.90;999.90;;;23.20;1.00;;;;;;5014262;28;20188;-61
2022/06/13 10:29:31;;;;;;;1999.90;999.90;;;22.80;1.00;;;;;;5013826;28;20196;-61
2022/06/13 10:32:16;;;;;;;1999.90;999.90;;;21.80;1.00;;;;;;5013928;28;20204;-61
2022/06/13 10:34:58;;;;;;;1999.90;999.90;;;22.10;1.00;;;;;;5013906;28;20192;-61
2022/06/13 10:37:34;;;;;;;1999.90;999.90;;;23.90;1.00;;;;;;5013325;28;20650;-61
2022/06/13 10:40:05;;;;;;;1999.90;999.90;;;25.70;1.00;;;;;;5013838;28;20235;-61
2022/06/13 10:42:33;;;;;;;1999.90;999.90;;;25.60;1.00;;;;;;5013800;28;20270;-60
2022/06/13 10:45:03;;;;;;;1999.90;999.90;;;25.00;1.00;;;;;;5013798;28;20239;-61
2022/06/13 10:47:37;;;;;;;1999.90;999.90;;;24.90;1.00;;;;;;5013745;28;20197;-61
2022/06/13 10:50:09;;;;;;;1999.90;999.90;;;24.20;1.00;;;;;;5013306;28;20631;-61
2022/06/13 10:52:41;;;;;;;1999.90;999.90;;;22.40;99.90;;;;;;5013535;28;20205;-61
2022/06/13 10:55:11;;;;;;;1999.90;999.90;;;22.40;99.90;;;;;;5013244;28;20671;-62
2022/06/13 10:57:42;;;;;;;1999.90;999.90;;;23.20;1.00;;;;;;5013502;28;20204;-61
2022/06/13 11:00:17;;;;;;;1999.90;999.90;;;22.80;1.00;;;;;;5005966;28;20182;-61
2022/06/13 11:02:44;;;;;;;1999.90;999.90;;;23.50;1.00;;;;;;5004532;28;20181;-61
2022/06/13 11:05:16;;;;;;;1999.90;999.90;;;24.00;1.00;;;;;;5001294;28;20205;-61
2022/06/13 11:07:47;;;;;;;1999.90;999.90;;;24.70;1.00;;;;;;5001133;28;20185;-60
2022/06/13 11:10:33;;;;;;;1999.90;999.90;;;24.80;1.00;;;;;;4998353;28;20189;-61
2022/06/13 11:13:01;;;;;;;1999.90;999.90;;;24.70;1.00;;;;;;4992184;28;20248;-61
2022/06/13 11:24:12;;;;;;;1999.90;999.90;;;24.70;99.90;;;;;;5013115;28;20180;-61
2022/06/13 11:29:27;;;;;;;1999.90;999.90;;;23.90;99.90;;;;;;4993405;28;20185;-61
2022/06/13 11:31:56;;;;;;;1999.90;999.90;;;23.30;99.90;;;;;;4993119;28;20202;-61
2022/06/13 11:34:29;;;;;;;1999.90;999.90;;;24.60;99.90;;;;;;4993280;28;20524;-61
2022/06/13 11:37:01;;;;;;;1999.90;999.90;;;25.70;99.90;;;;;;4993356;28;20221;-61
2022/06/13 11:39:33;;;;;;;1999.90;999.90;;;25.10;99.90;;;;;;4993256;28;20174;-61
2022/06/13 11:42:01;;;;;;;1999.90;999.90;;;24.70;99.90;;;;;;4992808;28;20277;-61
2022/06/13 11:44:28;;;;;;;1999.90;999.90;;;24.30;99.90;;;;;;4992194;28;20205;-61
2022/06/13 11:47:00;;;;;;;1999.90;999.90;;;25.00;99.90;;;;;;4992810;28;20255;-62
2022/06/13 11:49:35;;;;;;;1999.90;999.90;;;25.50;99.90;;;;;;4992175;28;20236;-63
2022/06/13 11:53:35;;;;;;;1999.90;999.90;;;25.50;99.90;;;;;;4993115;28;20201;-63
2022/06/13 11:55:17;;;;;;;1999.90;999.90;;;25.00;99.90;;;;;;4992405;28;20202;-63
2022/06/13 11:57:52;;;;;;;1999.90;999.90;;;24.00;99.90;;;;;;4992513;28;20181;-61
2022/06/13 12:00:37;;;;;;;1999.90;999.90;;;24.20;99.90;;;;;;4992416;28;20191;-62
2022/06/13 12:03:20;;;;;;;1999.90;999.90;;;24.40;99.90;;;;;;4991375;28;20217;-62
2022/06/13 12:05:51;;;;;;;1999.90;999.90;;;25.10;99.90;;;;;;4992926;28;20194;-62
2022/06/13 12:08:23;;;;;;;1999.90;999.90;;;24.60;99.90;;;;;;4992879;28;20770;-62
2022/06/13 12:11:00;;;;;;;1999.90;999.90;;;25.40;99.90;;;;;;4992301;28;20186;-61
2022/06/13 12:13:30;;;;;;;1999.90;999.90;;;24.50;99.90;;;;;;4991345;28;20579;-62
2022/06/13 12:16:06;;;;;;;1999.90;999.90;;;25.50;99.90;;;;;;4992394;28;20231;-60
2022/06/13 12:18:41;;;;;;;1999.90;999.90;;;24.70;99.90;;;;;;4992525;28;20193;-60
2022/06/13 12:21:27;;;;;;;1999.90;999.90;;;24.10;99.90;;;;;;4992180;28;20236;-60
2022/06/13 12:24:00;;;;;;;1999.90;999.90;;;23.30;99.90;;;;;;4991309;28;20182;-60
2022/06/13 12:26:30;;;;;;;1999.90;999.90;;;23.70;99.90;;;;;;4992496;28;20551;-61
2022/06/13 12:29:13;;;;;;;1999.90;999.90;;;25.00;99.90;;;;;;4992067;28;20272;-60
2022/06/13 12:31:45;;;;;;;1999.90;999.90;;;25.50;99.90;;;;;;4992239;28;20194;-59
2022/06/13 12:34:22;;;;;;;1999.90;999.90;;;24.90;99.90;;;;;;4992131;28;20197;-60
2022/06/13 12:37:08;;;;;;;1999.90;999.90;;;23.90;99.90;;;;;;4992641;28;20186;-60
2022/06/13 12:39:50;;;;;;;1999.90;999.90;;;23.80;99.90;;;;;;4992470;28;20544;-61
2022/06/13 12:42:39;;;;;;;1999.90;999.90;;;22.90;99.90;;;;;;4992011;28;20196;-63
2022/06/13 12:45:42;;;;;;;1999.90;999.90;;;22.90;99.90;;;;;;4990519;28;20231;-63
2022/06/13 12:48:28;;;;;;;1999.90;999.90;;;24.20;99.90;;;;;;4992314;28;20198;-61
2022/06/13 12:51:16;;;;;;;1999.90;999.90;;;24.40;99.90;;;;;;4991914;28;20189;-61